Time;durP1;ratioP1;P1;durP2;ratioP2;P2;SDS_P1;SDS_P2;PMS_P1;PMS_P2;Temp;Humidity;BMP_temperature;BMP_pressure;BME280_temperature;BME280_humidity;BME280_pressure;Samples;Min_cycle;Max_cycle;Signal;HPM_P1;HPM_P2
2023/06/29 00:01:03;;;;;;;4.00;3.63;;;16.70;99.90;;;;;;5115246;22;20508;-71
2023/06/29 00:03:31;;;;;;;4.27;3.43;;;16.70;99.90;;;;;;5099823;28;20883;-70
2023/06/29 00:05:58;;;;;;;6.17;3.80;;;16.70;99.90;;;;;;5091819;28;20824;-71
2023/06/29 00:08:25;;;;;;;5.83;3.90;;;16.60;99.90;;;;;;5094026;28;20425;-70
2023/06/29 00:10:55;;;;;;;5.23;3.47;;;16.70;99.90;;;;;;5071400;28;20460;-70
2023/06/29 00:13:21;;;;;;;6.57;3.70;;;16.60;99.90;;;;;;5092621;28;20410;-70
2023/06/29 00:15:48;;;;;;;10.03;3.70;;;16.70;99.90;;;;;;5088952;28;20501;-70
2023/06/29 00:18:14;;;;;;;5.43;3.87;;;16.70;99.90;;;;;;5073149;28;20426;-71
2023/06/29 00:20:42;;;;;;;4.10;3.70;;;16.70;99.90;;;;;;5087871;28;20944;-71
2023/06/29 00:23:09;;;;;;;4.33;3.93;;;16.60;99.90;;;;;;5089367;28;20468;-69
2023/06/29 00:25:35;;;;;;;5.80;4.23;;;16.60;99.90;;;;;;5092221;28;20776;-69
2023/06/29 00:28:02;;;;;;;4.00;3.60;;;16.70;99.90;;;;;;5084497;28;20405;-70
2023/06/29 00:30:27;;;;;;;5.30;4.00;;;16.70;99.90;;;;;;5091470;28;20446;-69
2023/06/29 00:32:53;;;;;;;6.03;4.40;;;16.60;99.90;;;;;;5087737;28;20554;-69
2023/06/29 00:35:19;;;;;;;5.80;4.63;;;16.50;99.90;;;;;;5090426;28;20176;-70
2023/06/29 00:37:44;;;;;;;4.83;4.20;;;16.50;99.90;;;;;;5092168;28;20169;-69
2023/06/29 00:40:11;;;;;;;6.70;4.27;;;16.40;99.90;;;;;;5087501;28;20620;-69
2023/06/29 00:42:37;;;;;;;5.53;4.60;;;16.40;99.90;;;;;;5088443;28;20225;-70
2023/06/29 00:45:03;;;;;;;4.17;3.77;;;16.40;99.90;;;;;;5088820;28;20439;-71
2023/06/29 00:47:30;;;;;;;6.00;4.50;;;16.40;99.90;;;;;;5096328;28;20397;-69
2023/06/29 00:49:56;;;;;;;5.03;4.53;;;16.50;99.90;;;;;;5090178;28;20443;-70
2023/06/29 00:52:23;;;;;;;7.93;4.30;;;16.50;99.90;;;;;;5091187;28;20455;-69
2023/06/29 00:54:49;;;;;;;6.93;3.53;;;16.40;99.90;;;;;;5100423;28;20423;-69
2023/06/29 00:57:15;;;;;;;5.40;4.33;;;16.30;99.90;;;;;;5088332;28;20481;-70
2023/06/29 00:59:41;;;;;;;4.80;4.40;;;16.20;99.90;;;;;;5091187;28;20423;-69
2023/06/29 01:02:10;;;;;;;4.47;4.03;;;16.20;99.90;;;;;;5088502;28;20517;-70
2023/06/29 01:04:37;;;;;;;5.13;4.50;;;16.20;99.90;;;;;;5100142;28;20456;-69
2023/06/29 01:07:05;;;;;;;7.23;3.70;;;16.10;99.90;;;;;;5070532;28;20417;-70
2023/06/29 01:09:32;;;;;;;4.57;4.10;;;16.10;99.90;;;;;;5076049;28;20521;-70
2023/06/29 01:11:59;;;;;;;8.67;4.60;;;16.10;99.90;;;;;;5090212;28;20403;-69
2023/06/29 01:14:26;;;;;;;4.80;4.30;;;16.10;99.90;;;;;;5087238;28;20790;-69
2023/06/29 01:16:54;;;;;;;4.83;4.43;;;16.00;99.90;;;;;;5089409;28;20412;-68
2023/06/29 01:19:24;;;;;;;4.93;4.53;;;16.00;99.90;;;;;;5086455;28;20418;-69
2023/06/29 01:22:02;;;;;;;4.87;4.07;;;16.00;99.90;;;;;;5088037;28;20461;-70
2023/06/29 01:24:37;;;;;;;5.53;5.03;;;16.00;99.90;;;;;;5091605;28;20479;-70
2023/06/29 01:27:03;;;;;;;5.80;4.80;;;15.90;99.90;;;;;;5087055;28;20842;-70
2023/06/29 01:29:30;;;;;;;4.63;4.23;;;15.90;99.90;;;;;;5091531;28;20499;-69
2023/06/29 01:31:59;;;;;;;5.73;4.50;;;15.90;99.90;;;;;;5084261;28;20433;-69
2023/06/29 01:34:28;;;;;;;6.40;5.77;;;15.90;99.90;;;;;;5090547;28;20832;-69
2023/06/29 01:37:01;;;;;;;6.43;5.10;;;15.80;99.90;;;;;;5082782;28;20406;-70
2023/06/29 01:39:29;;;;;;;5.10;4.60;;;15.90;99.90;;;;;;5086475;28;20473;-70
2023/06/29 01:41:55;;;;;;;6.10;4.53;;;15.80;99.90;;;;;;5088492;28;20469;-69
2023/06/29 01:44:21;;;;;;;5.60;5.00;;;15.80;99.90;;;;;;5088668;28;20996;-70
2023/06/29 01:46:47;;;;;;;4.53;4.03;;;15.70;99.90;;;;;;5089482;28;20412;-70
2023/06/29 01:49:13;;;;;;;5.40;4.90;;;15.70;99.90;;;;;;5085758;28;20198;-69
2023/06/29 01:51:39;;;;;;;5.03;4.30;;;15.70;99.90;;;;;;5090401;28;20478;-69
2023/06/29 01:54:05;;;;;;;5.17;4.67;;;15.60;99.90;;;;;;5082804;28;20400;-70
2023/06/29 01:56:30;;;;;;;4.50;4.20;;;15.60;99.90;;;;;;5090497;28;20558;-70
2023/06/29 01:58:56;;;;;;;5.20;4.70;;;15.60;99.90;;;;;;5087512;28;20418;-70
2023/06/29 02:01:22;;;;;;;6.07;4.40;;;15.60;99.90;;;;;;5087696;28;20210;-70
2023/06/29 02:03:47;;;;;;;6.33;5.83;;;15.60;99.90;;;;;;5088788;28;20625;-71
2023/06/29 02:06:13;;;;;;;5.33;4.33;;;15.60;99.90;;;;;;5085661;28;20165;-70
2023/06/29 02:08:39;;;;;;;5.00;4.50;;;15.50;99.90;;;;;;5090193;28;20170;-69
2023/06/29 02:11:05;;;;;;;6.07;4.60;;;15.60;99.90;;;;;;5089719;28;20190;-70
2023/06/29 02:13:30;;;;;;;5.67;4.47;;;15.60;99.90;;;;;;5086096;28;20621;-69
2023/06/29 02:15:56;;;;;;;5.33;4.83;;;15.60;99.90;;;;;;5087920;28;20781;-70
2023/06/29 02:18:22;;;;;;;5.70;4.97;;;15.50;99.90;;;;;;5089827;28;20170;-70
2023/06/29 02:20:47;;;;;;;7.97;5.53;;;15.60;99.90;;;;;;5087234;28;20194;-69
2023/06/29 02:23:13;;;;;;;5.40;4.90;;;15.60;99.90;;;;;;5087613;28;20286;-70
2023/06/29 02:25:38;;;;;;;5.13;4.67;;;15.60;99.90;;;;;;5071631;28;20190;-71
2023/06/29 02:28:04;;;;;;;5.60;5.00;;;15.50;99.90;;;;;;5092207;28;20278;-69
2023/06/29 02:30:29;;;;;;;5.07;4.57;;;15.50;99.90;;;;;;5086504;28;20274;-69
2023/06/29 02:32:55;;;;;;;8.67;4.80;;;15.50;99.90;;;;;;5090086;28;20273;-70
2023/06/29 02:35:21;;;;;;;7.20;5.27;;;15.50;99.90;;;;;;5097191;28;20174;-69
2023/06/29 02:37:46;;;;;;;5.63;4.67;;;15.50;99.90;;;;;;5094446;28;20174;-70
2023/06/29 02:40:12;;;;;;;5.87;5.13;;;15.50;99.90;;;;;;5099482;28;20205;-69
2023/06/29 02:42:38;;;;;;;7.40;5.67;;;15.50;99.90;;;;;;5086550;28;20170;-70
2023/06/29 02:45:04;;;;;;;6.63;5.07;;;15.50;99.90;;;;;;5096647;28;20456;-70
2023/06/29 02:47:30;;;;;;;5.47;4.97;;;15.40;99.90;;;;;;5085972;28;20183;-69
2023/06/29 02:49:56;;;;;;;5.37;4.60;;;15.40;99.90;;;;;;5077202;28;20424;-70
2023/06/29 02:52:21;;;;;;;10.47;4.73;;;15.40;99.90;;;;;;5084449;28;20172;-69
2023/06/29 02:54:47;;;;;;;5.57;5.07;;;15.50;99.90;;;;;;5091925;28;20175;-70
2023/06/29 02:57:12;;;;;;;6.10;5.50;;;15.40;99.90;;;;;;5096792;28;20229;-69
2023/06/29 02:59:38;;;;;;;6.60;5.50;;;15.50;99.90;;;;;;5085271;28;20179;-69
2023/06/29 03:02:05;;;;;;;5.13;4.73;;;15.50;99.90;;;;;;5090302;28;20182;-71
2023/06/29 03:04:30;;;;;;;7.33;6.63;;;15.50;99.90;;;;;;5085095;28;20199;-70
2023/06/29 03:06:56;;;;;;;4.80;4.40;;;15.50;99.90;;;;;;5087251;28;20905;-69
2023/06/29 03:09:21;;;;;;;7.73;3.97;;;15.50;99.90;;;;;;5086712;28;20691;-71
2023/06/29 03:11:47;;;;;;;5.60;5.00;;;15.50;99.90;;;;;;5091793;28;20194;-69
2023/06/29 03:14:12;;;;;;;5.50;5.00;;;15.50;99.90;;;;;;5096714;28;20231;-70
2023/06/29 03:16:38;;;;;;;6.83;6.03;;;15.60;99.90;;;;;;5085499;28;20277;-69
2023/06/29 03:19:04;;;;;;;5.20;4.70;;;15.60;99.90;;;;;;5096329;28;20174;-69
2023/06/29 03:21:30;;;;;;;5.37;4.83;;;15.70;99.90;;;;;;5066659;28;20599;-69
2023/06/29 03:23:55;;;;;;;5.67;5.17;;;15.70;99.90;;;;;;5096182;28;20283;-69
2023/06/29 03:26:21;;;;;;;5.10;4.70;;;15.70;99.90;;;;;;5096790;28;20632;-69
2023/06/29 03:28:46;;;;;;;6.23;5.63;;;15.80;99.90;;;;;;5069221;28;20175;-70
2023/06/29 03:31:12;;;;;;;7.57;5.23;;;15.80;99.90;;;;;;5089632;28;20183;-69
2023/06/29 03:33:38;;;;;;;7.17;5.43;;;15.80;99.90;;;;;;5084094;28;20663;-69
2023/06/29 03:36:05;;;;;;;5.67;5.17;;;15.90;99.90;;;;;;5096476;28;20322;-70
2023/06/29 03:38:30;;;;;;;6.70;6.03;;;15.90;99.90;;;;;;5094419;28;20182;-71
2023/06/29 03:40:56;;;;;;;9.90;5.57;;;16.00;99.90;;;;;;5082974;28;20469;-70
2023/06/29 03:43:22;;;;;;;5.47;4.97;;;16.00;99.90;;;;;;5080697;28;20201;-70
2023/06/29 03:45:47;;;;;;;10.50;8.03;;;16.10;99.90;;;;;;5088609;28;20266;-70
2023/06/29 03:48:13;;;;;;;9.97;7.20;;;16.10;99.90;;;;;;5096224;28;20178;-70
2023/06/29 03:50:38;;;;;;;11.10;8.80;;;16.20;99.90;;;;;;5093607;28;20277;-70
2023/06/29 03:53:04;;;;;;;9.93;8.93;;;16.20;99.90;;;;;;5084049;28;20190;-69
2023/06/29 03:55:29;;;;;;;10.53;8.70;;;16.30;99.90;;;;;;5090223;28;20601;-68
2023/06/29 03:57:57;;;;;;;10.47;8.97;;;16.40;99.90;;;;;;5084207;28;20257;-69
2023/06/29 04:00:23;;;;;;;9.70;7.63;;;16.40;99.90;;;;;;5104279;28;20605;-70
2023/06/29 04:02:49;;;;;;;9.80;8.10;;;16.50;99.90;;;;;;5093007;28;20420;-71
2023/06/29 04:05:14;;;;;;;13.57;10.20;;;16.60;99.90;;;;;;5090345;28;20224;-69
2023/06/29 04:07:40;;;;;;;8.00;7.30;;;16.70;99.90;;;;;;5092389;28;20173;-70
2023/06/29 04:10:06;;;;;;;16.00;8.77;;;16.80;99.90;;;;;;5091168;28;20611;-70
2023/06/29 04:12:31;;;;;;;8.90;6.17;;;16.90;99.90;;;;;;5093113;28;20281;-69
2023/06/29 04:14:57;;;;;;;12.80;6.67;;;17.10;99.90;;;;;;5087877;28;20510;-69
2023/06/29 04:17:23;;;;;;;13.20;7.90;;;17.40;99.90;;;;;;5093076;28;20581;-70
2023/06/29 04:19:48;;;;;;;13.23;8.27;;;18.20;99.90;;;;;;5093451;28;20173;-70
2023/06/29 04:22:14;;;;;;;12.83;6.83;;;19.30;99.90;;;;;;5095386;28;20170;-70
2023/06/29 04:24:39;;;;;;;11.83;7.43;;;20.20;99.90;;;;;;5077842;28;20193;-70
2023/06/29 04:27:05;;;;;;;9.90;6.90;;;20.20;99.90;;;;;;5091109;28;20169;-69
2023/06/29 04:29:31;;;;;;;11.30;7.60;;;19.60;99.90;;;;;;5095438;28;20194;-70
2023/06/29 04:31:57;;;;;;;10.60;8.60;;;19.60;99.90;;;;;;5093587;28;20206;-70
2023/06/29 04:34:22;;;;;;;11.60;8.40;;;19.30;99.90;;;;;;5099560;28;20167;-69
2023/06/29 04:36:48;;;;;;;11.10;8.03;;;19.00;99.90;;;;;;5105732;28;20923;-70
2023/06/29 04:39:14;;;;;;;11.00;8.33;;;19.00;99.90;;;;;;5090100;28;20514;-71
2023/06/29 04:41:41;;;;;;;10.27;7.87;;;18.80;99.90;;;;;;5091657;28;20207;-70
2023/06/29 04:44:11;;;;;;;10.83;8.37;;;18.90;99.90;;;;;;5089620;28;20452;-70
2023/06/29 04:46:40;;;;;;;13.73;7.30;;;18.90;99.90;;;;;;5094042;28;20426;-69
2023/06/29 04:49:07;;;;;;;10.90;7.43;;;18.70;99.90;;;;;;5088068;28;20397;-71
2023/06/29 04:51:36;;;;;;;12.53;8.50;;;18.70;99.90;;;;;;5091503;28;20876;-71
2023/06/29 04:54:04;;;;;;;13.83;8.40;;;18.80;99.90;;;;;;5092664;28;20511;-70
2023/06/29 04:56:29;;;;;;;10.93;7.40;;;18.80;99.90;;;;;;5092644;28;20454;-70
2023/06/29 04:58:56;;;;;;;12.23;7.60;;;19.00;99.90;;;;;;5091675;28;20413;-72
2023/06/29 05:01:21;;;;;;;13.33;8.27;;;19.10;99.90;;;;;;5089331;28;20242;-70
2023/06/29 05:03:47;;;;;;;10.47;6.90;;;19.30;99.90;;;;;;5091693;28;20451;-69
2023/06/29 05:06:12;;;;;;;13.53;7.80;;;19.70;99.90;;;;;;5087123;28;20190;-69
2023/06/29 05:08:38;;;;;;;10.13;7.50;;;20.40;99.90;;;;;;5091826;28;20198;-70
2023/06/29 05:11:04;;;;;;;11.80;5.90;;;20.80;99.90;;;;;;5091555;28;20199;-69
2023/06/29 05:13:29;;;;;;;6.77;5.10;;;20.70;99.90;;;;;;5094187;28;20168;-69
2023/06/29 05:15:55;;;;;;;6.70;5.63;;;21.10;99.90;;;;;;5098526;28;20221;-71
2023/06/29 05:18:20;;;;;;;10.50;5.13;;;21.50;99.90;;;;;;5088257;28;20315;-70
2023/06/29 05:20:46;;;;;;;7.30;4.87;;;22.10;99.90;;;;;;5096112;28;20250;-71
2023/06/29 05:23:12;;;;;;;7.10;4.50;;;22.10;99.90;;;;;;5086432;28;20284;-70
2023/06/29 05:25:39;;;;;;;9.30;6.40;;;22.40;99.90;;;;;;5091797;28;20166;-71
2023/06/29 05:28:05;;;;;;;8.33;5.43;;;22.70;99.90;;;;;;5091560;28;20165;-71
2023/06/29 05:30:30;;;;;;;11.53;4.40;;;23.00;99.90;;;;;;5096327;28;20970;-71
2023/06/29 05:32:56;;;;;;;4.60;3.70;;;22.80;99.90;;;;;;5086725;28;20219;-71
2023/06/29 05:35:22;;;;;;;4.00;3.67;;;22.30;99.90;;;;;;5089088;28;20161;-71
2023/06/29 05:37:47;;;;;;;6.20;3.43;;;22.40;99.90;;;;;;5101534;28;20161;-71
2023/06/29 05:40:13;;;;;;;4.87;3.53;;;23.60;99.90;;;;;;5069970;28;20284;-71
2023/06/29 05:42:39;;;;;;;6.27;3.37;;;24.60;99.90;;;;;;5090840;28;20174;-72
2023/06/29 05:45:05;;;;;;;6.00;3.60;;;25.20;99.90;;;;;;5092109;28;20462;-71
2023/06/29 05:47:31;;;;;;;12.87;7.27;;;25.30;99.90;;;;;;5108621;28;20194;-71
2023/06/29 05:49:57;;;;;;;9.43;6.30;;;24.60;99.90;;;;;;5087852;28;20928;-70
2023/06/29 05:52:22;;;;;;;17.47;7.90;;;24.70;99.90;;;;;;5094424;28;20170;-71
2023/06/29 05:54:48;;;;;;;5.87;5.13;;;25.10;99.90;;;;;;5099065;28;20349;-72
2023/06/29 05:57:13;;;;;;;9.37;6.23;;;25.40;99.90;;;;;;5092340;28;20178;-70
2023/06/29 05:59:39;;;;;;;5.83;4.67;;;25.30;99.90;;;;;;5091578;28;20231;-71
2023/06/29 06:02:05;;;;;;;5.97;4.43;;;25.50;99.90;;;;;;5110321;22;20636;-70
2023/06/29 06:04:31;;;;;;;5.13;4.70;;;25.50;99.90;;;;;;5104269;28;20239;-69
2023/06/29 06:06:58;;;;;;;8.17;3.90;;;25.40;99.90;;;;;;5100852;28;20431;-69
2023/06/29 06:09:24;;;;;;;5.40;3.47;;;24.90;99.90;;;;;;5105202;28;20468;-69
2023/06/29 06:11:49;;;;;;;4.93;4.03;;;25.50;99.90;;;;;;5092785;28;20407;-69
2023/06/29 06:14:15;;;;;;;5.70;3.63;;;26.00;99.90;;;;;;5089696;28;20197;-69
2023/06/29 06:16:40;;;;;;;4.07;3.47;;;26.20;99.90;;;;;;5091444;28;20635;-70
2023/06/29 06:19:06;;;;;;;4.40;3.53;;;26.90;99.90;;;;;;5082023;28;20181;-69
2023/06/29 06:21:31;;;;;;;7.70;4.00;;;26.30;99.90;;;;;;5091964;28;20182;-70
2023/06/29 06:23:57;;;;;;;7.90;4.03;;;25.90;99.90;;;;;;5080298;28;20877;-70
2023/06/29 06:26:23;;;;;;;4.47;2.83;;;25.40;99.90;;;;;;5086758;28;20224;-70
2023/06/29 06:28:50;;;;;;;5.70;3.47;;;25.80;99.90;;;;;;5089942;28;20174;-70
2023/06/29 06:31:17;;;;;;;4.97;3.47;;;25.60;99.90;;;;;;5085097;28;20265;-70
2023/06/29 06:33:43;;;;;;;5.90;5.03;;;25.40;99.90;;;;;;5069974;28;20447;-70
2023/06/29 06:36:09;;;;;;;4.60;3.10;;;26.60;99.90;;;;;;5079927;28;20412;-70
2023/06/29 06:38:34;;;;;;;7.87;2.97;;;27.50;99.90;;;;;;5070144;28;20834;-70
2023/06/29 06:41:00;;;;;;;4.30;2.97;;;27.70;99.90;;;;;;5076671;28;20616;-70
2023/06/29 06:43:25;;;;;;;7.70;3.07;;;27.70;99.90;;;;;;5075287;28;20578;-71
2023/06/29 06:45:52;;;;;;;4.87;3.20;;;27.30;99.90;;;;;;5087406;28;20177;-68
2023/06/29 06:48:18;;;;;;;2.90;2.60;;;28.20;99.90;;;;;;5080287;28;20173;-69
2023/06/29 06:50:44;;;;;;;7.13;2.97;;;28.10;99.90;;;;;;5087901;28;20498;-69
2023/06/29 06:53:10;;;;;;;3.57;2.73;;;28.80;99.90;;;;;;5080370;28;20567;-70
2023/06/29 06:55:35;;;;;;;4.70;2.70;;;28.20;99.90;;;;;;5079578;28;20178;-70
2023/06/29 06:58:01;;;;;;;3.13;2.67;;;29.10;99.90;;;;;;5089535;28;20177;-68
2023/06/29 07:00:27;;;;;;;5.57;3.43;;;28.00;99.90;;;;;;5080996;28;20553;-69
2023/06/29 07:02:53;;;;;;;4.70;3.07;;;27.20;99.90;;;;;;5086421;28;20447;-69
2023/06/29 07:05:18;;;;;;;5.20;3.00;;;27.20;99.90;;;;;;5079711;28;20201;-70
2023/06/29 07:07:46;;;;;;;7.13;2.90;;;27.80;99.90;;;;;;5088780;28;20179;-70
2023/06/29 07:10:12;;;;;;;6.13;2.90;;;27.20;99.90;;;;;;5082793;28;20525;-70
2023/06/29 07:12:38;;;;;;;2.57;2.37;;;26.30;99.90;;;;;;5087281;28;20964;-70
2023/06/29 07:15:04;;;;;;;5.23;2.80;;;25.90;99.90;;;;;;5092319;28;20408;-70
2023/06/29 07:17:30;;;;;;;4.40;2.20;;;26.70;99.90;;;;;;5089630;28;20263;-70
2023/06/29 07:19:56;;;;;;;2.93;2.40;;;26.60;99.90;;;;;;5092468;28;20890;-69
2023/06/29 07:22:22;;;;;;;2.30;1.80;;;26.30;99.90;;;;;;5097053;28;20439;-69
2023/06/29 07:24:47;;;;;;;2.33;2.13;;;26.10;99.90;;;;;;5092505;28;20941;-69
2023/06/29 07:27:13;;;;;;;9.60;2.73;;;25.50;99.90;;;;;;5085896;28;20162;-69
2023/06/29 07:29:42;;;;;;;3.37;2.20;;;25.10;99.90;;;;;;5068661;28;20444;-69
2023/06/29 07:32:08;;;;;;;4.20;2.57;;;25.20;99.90;;;;;;5088131;28;20190;-69
2023/06/29 07:34:34;;;;;;;3.43;2.90;;;25.70;99.90;;;;;;5079494;28;20447;-70
2023/06/29 07:37:00;;;;;;;1.83;1.63;;;25.70;99.90;;;;;;5075198;28;20448;-70
2023/06/29 07:39:27;;;;;;;5.53;2.10;;;24.90;99.90;;;;;;5071767;28;20223;-70
2023/06/29 07:41:52;;;;;;;4.87;1.83;;;24.60;99.90;;;;;;5094083;28;20173;-70
2023/06/29 07:44:18;;;;;;;2.53;1.77;;;24.30;99.90;;;;;;5072455;28;20531;-69
2023/06/29 07:46:44;;;;;;;2.37;2.07;;;24.50;99.90;;;;;;5086407;28;20174;-71
2023/06/29 07:49:09;;;;;;;10.23;1.97;;;24.80;99.90;;;;;;5089874;28;20162;-68
2023/06/29 07:51:35;;;;;;;2.10;1.67;;;24.70;99.90;;;;;;5086292;28;20173;-70
2023/06/29 07:54:02;;;;;;;2.47;1.70;;;24.50;99.90;;;;;;5091325;28;20166;-69
2023/06/29 07:56:28;;;;;;;3.83;2.50;;;24.50;99.90;;;;;;5082906;28;20183;-69
2023/06/29 07:58:54;;;;;;;4.27;3.20;;;24.30;99.90;;;;;;5093720;28;20411;-69
2023/06/29 08:01:20;;;;;;;2.43;2.23;;;24.30;99.90;;;;;;5090531;28;20416;-70
2023/06/29 08:03:46;;;;;;;2.70;2.27;;;23.70;99.90;;;;;;5074555;28;20209;-69
2023/06/29 08:06:11;;;;;;;6.10;3.27;;;23.90;99.90;;;;;;5071102;28;20165;-68
2023/06/29 08:08:38;;;;;;;4.93;3.63;;;24.50;99.90;;;;;;5091805;28;20256;-68
2023/06/29 08:11:03;;;;;;;6.17;3.67;;;24.40;99.90;;;;;;5089860;28;20176;-69
2023/06/29 08:13:29;;;;;;;4.30;2.80;;;24.20;99.90;;;;;;5085647;28;20503;-69
2023/06/29 08:15:54;;;;;;;2.97;2.00;;;24.30;99.90;;;;;;5088622;28;20181;-69
2023/06/29 08:18:20;;;;;;;3.43;2.07;;;24.50;99.90;;;;;;5067636;28;20177;-69
2023/06/29 08:20:46;;;;;;;3.20;2.50;;;24.50;99.90;;;;;;5085743;28;20255;-69
2023/06/29 08:23:12;;;;;;;2.73;2.47;;;24.40;99.90;;;;;;5091191;28;20284;-68
2023/06/29 08:25:38;;;;;;;2.33;2.13;;;24.50;99.90;;;;;;5085498;28;20190;-68
2023/06/29 08:28:03;;;;;;;2.60;1.90;;;24.80;99.90;;;;;;5085614;28;20416;-70
2023/06/29 08:30:29;;;;;;;1.90;1.50;;;24.20;99.90;;;;;;5092350;28;20201;-69
2023/06/29 08:32:54;;;;;;;2.77;1.70;;;24.00;99.90;;;;;;5084733;28;20195;-68
2023/06/29 08:35:20;;;;;;;6.20;2.13;;;23.80;99.90;;;;;;5091632;28;20245;-70
2023/06/29 08:37:45;;;;;;;2.50;1.87;;;24.00;99.90;;;;;;5084993;28;20172;-69
2023/06/29 08:40:11;;;;;;;2.30;1.90;;;24.30;99.90;;;;;;5090798;28;20642;-70
2023/06/29 08:42:37;;;;;;;2.40;2.20;;;24.00;99.90;;;;;;5084985;28;20676;-69
2023/06/29 08:45:05;;;;;;;2.80;2.33;;;23.80;99.90;;;;;;5093775;28;20245;-68
2023/06/29 08:47:34;;;;;;;1.77;1.67;;;24.20;99.90;;;;;;5092156;28;20168;-69
2023/06/29 08:50:03;;;;;;;1.60;1.50;;;23.80;99.90;;;;;;5067633;28;20406;-68
2023/06/29 08:52:34;;;;;;;3.00;2.53;;;23.80;99.90;;;;;;5085408;28;20990;-69
2023/06/29 08:55:02;;;;;;;7.10;3.30;;;24.00;99.90;;;;;;5077531;28;20487;-69
2023/06/29 08:57:32;;;;;;;2.10;1.87;;;24.00;99.90;;;;;;5091954;28;20404;-68
2023/06/29 09:00:03;;;;;;;3.20;2.10;;;24.30;99.90;;;;;;5089095;28;20916;-69
2023/06/29 09:02:29;;;;;;;3.60;2.90;;;24.20;99.90;;;;;;5076102;28;21031;-69
2023/06/29 09:04:56;;;;;;;3.00;2.10;;;24.70;99.90;;;;;;5089146;28;20649;-70
2023/06/29 09:07:21;;;;;;;1.80;1.70;;;24.60;99.90;;;;;;5092410;28;20777;-69
2023/06/29 09:09:47;;;;;;;1.93;1.70;;;24.80;99.90;;;;;;5087651;28;20407;-69
2023/06/29 09:12:13;;;;;;;1.70;1.60;;;24.10;99.90;;;;;;5091705;28;20192;-69
2023/06/29 09:14:43;;;;;;;3.17;1.50;;;24.50;99.90;;;;;;5092593;28;20542;-69
2023/06/29 09:17:17;;;;;;;2.00;1.60;;;24.70;99.90;;;;;;5087924;28;20639;-69
2023/06/29 09:19:54;;;;;;;1.83;1.30;;;25.10;99.90;;;;;;5092368;28;20422;-69
2023/06/29 09:22:21;;;;;;;4.13;1.87;;;24.30;99.90;;;;;;5087735;28;20425;-70
2023/06/29 09:24:54;;;;;;;3.80;1.90;;;24.00;99.90;;;;;;5074635;28;20484;-69
2023/06/29 09:27:20;;;;;;;1.83;1.70;;;24.20;99.90;;;;;;5087777;28;20403;-71
2023/06/29 09:29:53;;;;;;;1.53;1.43;;;24.30;99.90;;;;;;5073805;28;20405;-71
2023/06/29 09:32:19;;;;;;;3.77;2.00;;;24.50;99.90;;;;;;5087223;28;20426;-70
2023/06/29 09:34:47;;;;;;;4.23;1.57;;;23.80;99.90;;;;;;5084785;28;20425;-70
2023/06/29 09:37:17;;;;;;;1.70;1.60;;;24.20;99.90;;;;;;5053138;28;20526;-70
2023/06/29 09:40:09;;;;;;;2.90;1.60;;;24.50;99.90;;;;;;5082236;28;20862;-69
2023/06/29 09:42:38;;;;;;;5.03;2.07;;;24.90;99.90;;;;;;5082677;28;20515;-69
2023/06/29 09:45:11;;;;;;;2.87;1.77;;;24.80;99.90;;;;;;5084294;28;20460;-69
2023/06/29 09:47:48;;;;;;;2.83;1.90;;;24.80;99.90;;;;;;5089965;28;20456;-69
2023/06/29 09:50:17;;;;;;;2.30;1.63;;;25.50;99.90;;;;;;5066392;28;20493;-70
2023/06/29 09:52:47;;;;;;;1.87;1.70;;;25.80;99.90;;;;;;5083811;28;20458;-69
2023/06/29 09:55:14;;;;;;;1.70;1.60;;;26.10;99.90;;;;;;5086301;28;20522;-70
2023/06/29 09:57:49;;;;;;;7.80;1.80;;;26.30;99.90;;;;;;5088752;28;20781;-70
2023/06/29 10:00:15;;;;;;;2.33;1.73;;;25.80;99.90;;;;;;5090379;28;20410;-69
2023/06/29 10:02:41;;;;;;;6.73;2.30;;;25.80;99.90;;;;;;5069344;28;20455;-70
2023/06/29 10:05:08;;;;;;;2.13;2.03;;;25.40;99.90;;;;;;5091110;28;20451;-68
2023/06/29 10:07:36;;;;;;;1.93;1.73;;;25.30;99.90;;;;;;5086446;28;20170;-69
2023/06/29 10:10:04;;;;;;;4.70;1.83;;;25.40;99.90;;;;;;5091099;28;20403;-70
2023/06/29 10:12:31;;;;;;;2.33;1.60;;;25.20;99.90;;;;;;5074974;28;20443;-69
2023/06/29 10:15:05;;;;;;;3.83;2.03;;;24.90;99.90;;;;;;5092576;28;20449;-69
2023/06/29 10:17:47;;;;;;;2.53;2.07;;;24.80;99.90;;;;;;5095619;28;20440;-69
2023/06/29 10:20:15;;;;;;;1.60;1.50;;;24.70;99.90;;;;;;5077024;28;20461;-69
2023/06/29 10:22:42;;;;;;;2.07;1.60;;;24.90;99.90;;;;;;5085955;28;20436;-69
2023/06/29 10:25:13;;;;;;;2.13;1.93;;;25.60;99.90;;;;;;5093353;28;20455;-69
2023/06/29 10:27:40;;;;;;;4.70;1.87;;;25.50;99.90;;;;;;5088985;28;20406;-69
2023/06/29 10:30:06;;;;;;;5.80;2.13;;;26.00;99.90;;;;;;5095914;28;20407;-69
2023/06/29 10:32:33;;;;;;;3.67;1.97;;;25.30;99.90;;;;;;5090038;28;20431;-73
2023/06/29 10:35:02;;;;;;;2.80;2.03;;;25.20;99.90;;;;;;5087839;28;20421;-70
2023/06/29 10:37:32;;;;;;;3.20;2.07;;;25.40;99.90;;;;;;5088252;28;20407;-70
2023/06/29 10:39:58;;;;;;;3.30;2.63;;;25.60;99.90;;;;;;5090866;28;20490;-69
2023/06/29 10:42:24;;;;;;;2.30;2.10;;;25.80;99.90;;;;;;5091473;28;20526;-69
2023/06/29 10:44:50;;;;;;;4.10;1.53;;;26.60;99.90;;;;;;5065219;28;20245;-69
2023/06/29 10:47:28;;;;;;;2.13;1.93;;;26.70;99.90;;;;;;5084070;28;20252;-69
2023/06/29 10:50:13;;;;;;;3.57;2.17;;;25.80;99.90;;;;;;5087980;28;20407;-69
2023/06/29 10:52:43;;;;;;;3.63;2.33;;;25.20;99.90;;;;;;5070236;28;20442;-69
2023/06/29 10:55:23;;;;;;;3.30;1.87;;;25.10;99.90;;;;;;5086206;28;20772;-70
2023/06/29 10:57:48;;;;;;;2.57;1.93;;;25.80;99.90;;;;;;5082937;28;20808;-70
2023/06/29 11:00:15;;;;;;;4.27;2.00;;;26.20;99.90;;;;;;5091912;28;20429;-69
2023/06/29 11:02:41;;;;;;;2.90;2.70;;;26.30;99.90;;;;;;5080938;28;20714;-69
2023/06/29 11:05:17;;;;;;;2.77;1.97;;;26.30;99.90;;;;;;5073006;28;20446;-70
2023/06/29 11:07:44;;;;;;;2.70;2.07;;;26.80;99.90;;;;;;5089072;28;20410;-69
2023/06/29 11:10:11;;;;;;;3.60;2.37;;;26.90;99.90;;;;;;5096244;28;20770;-69
2023/06/29 11:12:37;;;;;;;2.63;2.43;;;26.40;99.90;;;;;;5093957;28;20480;-69
2023/06/29 11:15:13;;;;;;;2.27;1.70;;;26.00;99.90;;;;;;5093188;28;20784;-69
2023/06/29 11:17:40;;;;;;;2.70;2.03;;;25.90;99.90;;;;;;5090244;28;20434;-69
2023/06/29 11:20:10;;;;;;;2.27;1.90;;;26.50;99.90;;;;;;5094057;28;20511;-69
2023/06/29 11:22:36;;;;;;;3.53;2.87;;;26.70;99.90;;;;;;5091292;28;20423;-69
2023/06/29 11:25:02;;;;;;;3.90;3.57;;;26.90;99.90;;;;;;5071433;28;20830;-69
2023/06/29 11:27:28;;;;;;;4.27;3.00;;;27.20;99.90;;;;;;5094211;28;20415;-70
2023/06/29 11:29:55;;;;;;;3.73;2.30;;;27.50;99.90;;;;;;5089800;28;20219;-70
2023/06/29 11:32:21;;;;;;;2.40;2.20;;;27.20;99.90;;;;;;5093410;28;20497;-70
2023/06/29 11:34:47;;;;;;;3.33;2.17;;;26.50;99.90;;;;;;5077997;28;20411;-70
2023/06/29 11:37:12;;;;;;;3.80;3.10;;;26.60;99.90;;;;;;5074510;28;20253;-69
2023/06/29 11:39:38;;;;;;;3.87;3.03;;;26.40;99.90;;;;;;5092075;28;20233;-69
2023/06/29 11:42:08;;;;;;;3.50;2.67;;;26.40;99.90;;;;;;5097517;28;20189;-70
2023/06/29 11:44:34;;;;;;;4.10;3.07;;;26.70;99.90;;;;;;5089296;28;20200;-69
2023/06/29 11:47:00;;;;;;;3.60;3.23;;;26.70;99.90;;;;;;5089800;28;20494;-70
2023/06/29 11:49:26;;;;;;;6.33;3.70;;;27.40;99.90;;;;;;5092751;28;20173;-69
2023/06/29 11:51:52;;;;;;;4.47;3.50;;;27.40;99.90;;;;;;5095246;28;20165;-69
2023/06/29 11:54:18;;;;;;;4.33;3.40;;;27.60;99.90;;;;;;5091344;28;20944;-69
2023/06/29 11:56:44;;;;;;;3.20;2.80;;;27.10;99.90;;;;;;5092753;28;20546;-69
2023/06/29 11:59:15;;;;;;;2.90;2.50;;;26.40;99.90;;;;;;5096852;28;20485;-69
2023/06/29 12:01:43;;;;;;;2.50;2.30;;;26.90;99.90;;;;;;5091295;28;20314;-69
2023/06/29 12:04:09;;;;;;;3.50;2.70;;;27.30;99.90;;;;;;5115500;22;20486;-69
2023/06/29 12:06:36;;;;;;;2.83;2.53;;;26.90;99.90;;;;;;5097780;28;20411;-68
2023/06/29 12:09:11;;;;;;;3.37;3.03;;;26.60;99.90;;;;;;5091229;28;20450;-68
2023/06/29 12:11:36;;;;;;;5.43;3.00;;;26.40;99.90;;;;;;5092828;28;20399;-69
2023/06/29 12:14:02;;;;;;;3.43;3.13;;;26.20;99.90;;;;;;5095955;28;20419;-69
2023/06/29 12:16:28;;;;;;;3.43;2.40;;;26.20;99.90;;;;;;5090282;28;20173;-68
2023/06/29 12:18:53;;;;;;;2.97;2.70;;;26.40;99.90;;;;;;5077530;28;20181;-70
2023/06/29 12:21:20;;;;;;;3.60;3.30;;;26.00;99.90;;;;;;5086115;28;20162;-70
2023/06/29 12:23:46;;;;;;;5.50;2.70;;;25.80;99.90;;;;;;5086000;28;20217;-68
2023/06/29 12:26:15;;;;;;;2.73;2.53;;;25.80;99.90;;;;;;5085941;28;20620;-69
2023/06/29 12:28:40;;;;;;;4.13;2.90;;;26.00;99.90;;;;;;5085550;28;20773;-69
2023/06/29 12:31:06;;;;;;;2.90;2.57;;;26.30;99.90;;;;;;5078373;28;20403;-67
2023/06/29 12:33:33;;;;;;;4.17;2.90;;;26.40;99.90;;;;;;5087038;28;20262;-68
2023/06/29 12:35:58;;;;;;;3.17;2.53;;;26.50;99.90;;;;;;5084129;28;20905;-69
2023/06/29 12:38:24;;;;;;;4.67;2.30;;;26.70;99.90;;;;;;5090670;28;20414;-69
2023/06/29 12:40:50;;;;;;;4.17;2.57;;;26.70;99.90;;;;;;5081669;28;20718;-67
2023/06/29 12:43:16;;;;;;;2.13;1.97;;;27.00;99.90;;;;;;5079883;28;20404;-70